Time;durP1;ratioP1;P1;durP2;ratioP2;P2;SDS_P1;SDS_P2;PMS_P1;PMS_P2;Temp;Humidity;BMP_temperature;BMP_pressure;BME280_temperature;BME280_humidity;BME280_pressure;Samples;Min_cycle;Max_cycle;Signal;HPM_P1;HPM_P2
2022/10/16 00:00:39;;;;;;;46.97;42.53;;;;;;;3.58;100.00;101969.69;5052500;28;20044;-81
2022/10/16 00:03:07;;;;;;;46.65;42.55;;;;;;;3.68;100.00;101974.00;5053189;28;20057;-81
2022/10/16 00:05:34;;;;;;;48.63;44.03;;;;;;;3.36;100.00;101974.09;5053296;28;20049;-80
2022/10/16 00:08:02;;;;;;;49.45;44.38;;;;;;;3.62;100.00;101971.91;5052606;28;20056;-80
2022/10/16 00:10:30;;;;;;;45.85;41.83;;;;;;;3.44;100.00;101979.53;5052292;28;20056;-81
2022/10/16 00:12:56;;;;;;;47.78;43.35;;;;;;;3.63;100.00;101972.72;5051927;28;20063;-78
2022/10/16 00:15:23;;;;;;;50.17;45.28;;;;;;;3.57;100.00;101978.50;5051869;28;20045;-82
2022/10/16 00:17:50;;;;;;;45.95;40.83;;;;;;;3.21;100.00;101985.88;5053034;28;20130;-80
2022/10/16 00:20:17;;;;;;;49.42;45.00;;;;;;;3.76;100.00;101988.31;5051696;28;20052;-81
2022/10/16 00:22:43;;;;;;;57.53;46.42;;;;;;;3.54;100.00;101986.63;5051377;28;20048;-81
2022/10/16 00:25:11;;;;;;;47.22;42.22;;;;;;;3.40;100.00;101993.06;5051965;28;20060;-79
2022/10/16 00:27:38;;;;;;;42.83;38.78;;;;;;;3.20;100.00;101999.94;5053180;28;20111;-81
2022/10/16 00:30:08;;;;;;;47.78;43.63;;;;;;;3.47;100.00;101999.47;5051249;28;20057;-78
2022/10/16 00:32:34;;;;;;;52.20;46.58;;;;;;;3.74;100.00;101988.41;5052376;28;20044;-79
2022/10/16 00:35:03;;;;;;;52.63;46.88;;;;;;;3.75;100.00;102005.88;5052753;28;20061;-80
2022/10/16 00:37:29;;;;;;;49.17;44.22;;;;;;;3.68;100.00;102000.28;5053295;28;20417;-78
2022/10/16 00:39:57;;;;;;;46.42;41.85;;;;;;;3.56;100.00;101990.81;5052571;28;20051;-80
2022/10/16 00:42:25;;;;;;;45.38;41.17;;;;;;;3.58;100.00;102003.81;5051084;28;20492;-80
2022/10/16 00:44:55;;;;;;;48.53;43.78;;;;;;;3.72;100.00;102005.28;5051781;28;20041;-78
2022/10/16 00:47:28;;;;;;;49.95;44.65;;;;;;;3.74;100.00;101992.84;5056903;28;20052;-78
2022/10/16 00:49:57;;;;;;;;;;;;;;;3.81;100.00;101997.47;5055389;28;20048;-80
2022/10/16 00:52:23;;;;;;;48.03;43.80;;;;;;;3.74;100.00;101996.31;5056740;28;19971;-80
2022/10/16 00:54:52;;;;;;;50.28;45.28;;;;;;;3.68;100.00;101999.44;5056008;28;20049;-78
2022/10/16 00:57:19;;;;;;;51.03;46.30;;;;;;;3.50;100.00;102007.09;5056428;28;20048;-81
2022/10/16 00:59:47;;;;;;;45.50;41.55;;;;;;;3.39;100.00;102010.63;5056371;28;20107;-80
2022/10/16 01:02:17;;;;;;;45.83;42.03;;;;;;;3.64;100.00;102005.94;5055132;28;20065;-81
2022/10/16 01:04:47;;;;;;;43.78;40.10;;;;;;;2.74;100.00;102009.78;5055838;28;20057;-80
2022/10/16 01:07:23;;;;;;;45.00;41.00;;;;;;;3.04;100.00;102013.50;5056024;28;20068;-79
2022/10/16 01:10:02;;;;;;;44.60;40.35;;;;;;;2.71;100.00;102010.03;5050851;28;20512;-81
2022/10/16 01:12:39;;;;;;;54.15;48.90;;;;;;;3.26;100.00;102004.69;5052909;28;20055;-78
2022/10/16 01:15:12;;;;;;;53.90;49.58;;;;;;;3.31;100.00;102004.34;5056644;28;20048;-79
2022/10/16 01:17:46;;;;;;;46.00;42.08;;;;;;;3.19;100.00;102014.06;5056000;28;20049;-82
2022/10/16 01:20:21;;;;;;;43.63;39.72;;;;;;;3.26;100.00;102022.25;5055497;28;20049;-81
2022/10/16 01:23:02;;;;;;;46.20;42.50;;;;;;;3.25;100.00;102012.72;5054851;28;20056;-80
2022/10/16 01:25:40;;;;;;;44.10;40.50;;;;;;;3.21;100.00;102017.41;5052364;28;20370;-78
2022/10/16 01:28:11;;;;;;;43.08;39.63;;;;;;;3.03;100.00;102021.53;5050279;28;20122;-78
2022/10/16 01:30:41;;;;;;;42.50;39.10;;;;;;;3.12;100.00;102023.41;5055517;28;20083;-79
2022/10/16 01:33:15;;;;;;;46.70;42.72;;;;;;;3.25;100.00;102015.34;5055321;28;20055;-80
2022/10/16 01:35:46;;;;;;;41.65;38.03;;;;;;;2.58;100.00;102022.47;5056375;28;20045;-81
2022/10/16 01:38:18;;;;;;;43.00;39.15;;;;;;;2.87;100.00;102024.53;5055563;28;20481;-78
2022/10/16 01:40:51;;;;;;;56.28;51.13;;;;;;;3.03;100.00;102024.16;5052226;28;20045;-77
2022/10/16 01:43:26;;;;;;;63.90;47.05;;;;;;;2.57;100.00;102023.41;5054089;28;20056;-78
2022/10/16 01:45:54;;;;;;;51.00;45.75;;;;;;;2.78;100.00;102025.28;5051590;28;20061;-81
2022/10/16 01:48:23;;;;;;;61.00;45.42;;;;;;;2.84;100.00;102027.41;5055434;28;20535;-81
2022/10/16 01:50:56;;;;;;;51.75;46.47;;;;;;;2.49;100.00;102031.06;5055405;28;20059;-79
2022/10/16 01:53:23;;;;;;;;;;;;;;;2.87;100.00;102024.53;5055267;28;20103;-78
2022/10/16 01:55:53;;;;;;;51.28;46.72;;;;;;;2.92;100.00;102030.25;5054486;28;19932;-82
2022/10/16 01:58:25;;;;;;;46.38;41.92;;;;;;;3.10;100.00;102028.75;5055407;28;20044;-78
2022/10/16 02:00:54;;;;;;;56.92;46.13;;;;;;;3.04;100.00;102039.75;5159326;23;20152;-79
2022/10/16 02:03:21;;;;;;;59.47;45.42;;;;;;;2.63;100.00;102033.44;5047786;28;20057;-81
2022/10/16 02:05:51;;;;;;;53.42;44.55;;;;;;;2.58;100.00;102037.38;5052432;28;20491;-79
2022/10/16 02:08:19;;;;;;;48.13;43.75;;;;;;;2.97;100.00;102039.44;5052053;28;20546;-77
2022/10/16 02:10:46;;;;;;;47.97;43.13;;;;;;;3.00;100.00;102042.78;5051738;28;20480;-79
2022/10/16 02:13:18;;;;;;;49.13;44.85;;;;;;;2.77;100.00;102042.81;5054116;28;20163;-77
2022/10/16 02:15:46;;;;;;;50.58;45.72;;;;;;;2.99;100.00;102036.66;5054206;28;20052;-80
2022/10/16 02:18:13;;;;;;;47.45;43.03;;;;;;;2.92;100.00;102033.69;5049270;28;20396;-80
2022/10/16 02:20:49;;;;;;;50.50;46.03;;;;;;;3.09;100.00;102042.84;5052988;28;20488;-79
2022/10/16 02:23:25;;;;;;;47.65;42.15;;;;;;;2.93;100.00;102051.09;5052093;28;20089;-78
2022/10/16 02:25:55;;;;;;;44.28;39.72;;;;;;;2.63;100.00;102049.16;5050068;28;20132;-81
2022/10/16 02:28:28;;;;;;;45.38;40.88;;;;;;;2.62;100.00;102049.28;5053020;28;20056;-78
2022/10/16 02:31:00;;;;;;;49.50;44.50;;;;;;;2.97;100.00;102054.34;5049381;28;20110;-80
2022/10/16 02:33:28;;;;;;;54.72;47.35;;;;;;;2.63;100.00;102056.19;5053380;28;20053;-78
2022/10/16 02:35:57;;;;;;;50.90;45.55;;;;;;;2.78;100.00;102059.38;5053017;28;20514;-81
2022/10/16 02:38:26;;;;;;;50.30;45.08;;;;;;;2.87;100.00;102056.03;5052298;28;20075;-80
2022/10/16 02:40:53;;;;;;;53.03;47.25;;;;;;;2.58;100.00;102063.59;5049661;28;20049;-77
2022/10/16 02:43:20;;;;;;;50.90;45.33;;;;;;;2.77;100.00;102061.19;5051922;28;20045;-78
2022/10/16 02:45:47;;;;;;;57.13;48.10;;;;;;;2.68;100.00;102064.53;5053190;28;20049;-79
2022/10/16 02:48:15;;;;;;;51.55;46.15;;;;;;;2.77;100.00;102070.84;5048973;28;20102;-78
2022/10/16 02:50:42;;;;;;;51.80;46.05;;;;;;;2.75;100.00;102060.47;5052525;28;20137;-81
2022/10/16 02:53:09;;;;;;;51.63;44.72;;;;;;;2.66;100.00;102064.66;5050504;28;20102;-81
2022/10/16 02:55:35;;;;;;;46.08;41.90;;;;;;;2.46;100.00;102068.00;5048716;28;20468;-81
2022/10/16 02:58:02;;;;;;;44.83;40.97;;;;;;;2.64;100.00;102065.75;5048570;28;20107;-78
2022/10/16 03:00:29;;;;;;;40.30;36.78;;;;;;;2.32;100.00;102061.22;5052539;28;20056;-78
2022/10/16 03:02:56;;;;;;;43.13;39.25;;;;;;;2.80;100.00;102063.56;5050946;28;20140;-78
2022/10/16 03:05:24;;;;;;;42.90;39.13;;;;;;;2.57;100.00;102070.59;5049904;28;20122;-80
2022/10/16 03:07:52;;;;;;;52.65;44.45;;;;;;;2.58;100.00;102067.06;5047845;28;20110;-80
2022/10/16 03:10:26;;;;;;;44.20;39.42;;;;;;;2.06;100.00;102068.47;5048748;28;20134;-77
2022/10/16 03:12:53;;;;;;;44.25;39.80;;;;;;;2.31;100.00;102075.28;5051797;28;20431;-79
2022/10/16 03:15:20;;;;;;;55.08;47.50;;;;;;;2.40;100.00;102073.75;5051827;28;20689;-80
2022/10/16 03:17:46;;;;;;;44.80;40.00;;;;;;;2.02;100.00;102073.09;5049748;28;20119;-77
2022/10/16 03:20:13;;;;;;;46.85;42.55;;;;;;;2.50;100.00;102078.13;5049231;28;20053;-80
2022/10/16 03:22:41;;;;;;;57.08;46.17;;;;;;;2.58;100.00;102079.34;5051805;28;20126;-80
2022/10/16 03:25:09;;;;;;;46.85;41.60;;;;;;;2.61;100.00;102079.94;5047052;28;20060;-80
2022/10/16 03:27:35;;;;;;;58.00;41.65;;;;;;;2.02;100.00;102080.13;5042556;28;20102;-78
2022/10/16 03:30:02;;;;;;;47.65;39.70;;;;;;;1.79;100.00;102079.28;5047395;28;20049;-80
2022/10/16 03:32:29;;;;;;;43.83;38.83;;;;;;;1.94;100.00;102085.13;5045604;28;20041;-78
2022/10/16 03:34:56;;;;;;;51.22;41.38;;;;;;;1.68;100.00;102087.09;5050113;28;20045;-78
2022/10/16 03:37:23;;;;;;;66.90;46.95;;;;;;;2.08;100.00;102081.44;5051962;28;20076;-78
2022/10/16 03:39:51;;;;;;;49.95;43.05;;;;;;;1.80;100.00;102091.41;5048996;28;20443;-77
2022/10/16 03:42:18;;;;;;;73.47;50.60;;;;;;;2.06;100.00;102097.31;5051511;28;20130;-79
2022/10/16 03:44:45;;;;;;;78.68;47.55;;;;;;;2.33;100.00;102083.88;5043613;28;20041;-78
2022/10/16 03:47:12;;;;;;;44.67;40.22;;;;;;;2.42;100.00;102095.41;5045984;28;20460;-78
2022/10/16 03:49:38;;;;;;;41.45;37.88;;;;;;;2.10;100.00;102090.03;5051343;28;20053;-79
2022/10/16 03:52:05;;;;;;;44.42;40.25;;;;;;;2.05;100.00;102079.91;5047384;28;20049;-80
2022/10/16 03:54:32;;;;;;;58.47;42.72;;;;;;;1.75;100.00;102088.28;5051507;28;20114;-77
2022/10/16 03:57:00;;;;;;;47.30;41.83;;;;;;;2.04;100.00;102086.09;5051767;28;20048;-80
2022/10/16 03:59:27;;;;;;;43.60;38.88;;;;;;;1.65;100.00;102082.91;5049394;28;20041;-82
2022/10/16 04:01:53;;;;;;;46.33;41.20;;;;;;;1.69;100.00;102084.34;5044720;28;20102;-80
2022/10/16 04:04:20;;;;;;;60.97;43.10;;;;;;;1.80;100.00;102084.38;5047069;28;20050;-79
2022/10/16 04:06:47;;;;;;;71.55;45.88;;;;;;;1.81;100.00;102079.97;5046255;28;20118;-80
2022/10/16 04:09:14;;;;;;;86.03;48.95;;;;;;;1.65;100.00;102088.13;5050581;28;20167;-82
2022/10/16 04:11:40;;;;;;;46.83;41.15;;;;;;;1.82;100.00;102087.72;5049827;28;20110;-78
2022/10/16 04:14:09;;;;;;;54.28;42.72;;;;;;;1.90;100.00;102088.91;5043452;28;20041;-81
2022/10/16 04:16:35;;;;;;;55.85;48.35;;;;;;;2.04;100.00;102097.41;5050967;28;20438;-81
2022/10/16 04:19:02;;;;;;;47.25;43.05;;;;;;;1.87;100.00;102089.97;5049437;28;20102;-78
2022/10/16 04:21:29;;;;;;;90.00;49.50;;;;;;;1.60;100.00;102096.34;5049994;28;20123;-78
2022/10/16 04:23:55;;;;;;;59.40;45.45;;;;;;;1.46;100.00;102093.09;5049123;28;20370;-81
2022/10/16 04:26:22;;;;;;;59.22;43.15;;;;;;;1.35;100.00;102089.44;5051341;28;20488;-78
2022/10/16 04:28:49;;;;;;;52.38;42.00;;;;;;;1.73;100.00;102090.22;5033400;28;20045;-80
2022/10/16 04:31:17;;;;;;;45.20;40.88;;;;;;;1.83;100.00;102084.16;5049434;28;20526;-78
2022/10/16 04:33:44;;;;;;;49.00;44.10;;;;;;;1.84;100.00;102095.44;5048040;28;20045;-78
2022/10/16 04:36:11;;;;;;;46.40;41.40;;;;;;;1.76;100.00;102096.03;5053283;28;20057;-80
2022/10/16 04:38:39;;;;;;;61.40;44.75;;;;;;;1.72;100.00;102099.00;5051583;28;20435;-80
2022/10/16 04:41:06;;;;;;;54.92;48.45;;;;;;;2.12;100.00;102102.09;5048404;28;20443;-78
2022/10/16 04:43:33;;;;;;;59.25;50.10;;;;;;;1.96;100.00;102104.19;5051707;28;20472;-80
2022/10/16 04:46:00;;;;;;;62.88;45.85;;;;;;;1.80;100.00;102112.38;5049245;28;20071;-80
2022/10/16 04:48:28;;;;;;;52.95;45.47;;;;;;;1.96;100.00;102115.50;5048122;28;20396;-81
2022/10/16 04:50:55;;;;;;;44.92;40.42;;;;;;;2.08;100.00;102123.38;5045737;28;20374;-80
2022/10/16 04:53:22;;;;;;;42.38;38.75;;;;;;;1.96;100.00;102120.72;5041660;28;20067;-80
2022/10/16 04:55:49;;;;;;;42.92;38.95;;;;;;;2.26;100.00;102129.84;5045586;28;20053;-78
2022/10/16 04:58:15;;;;;;;46.67;41.38;;;;;;;2.57;100.00;102127.50;5050674;28;20119;-81
2022/10/16 05:00:42;;;;;;;44.92;40.55;;;;;;;2.69;100.00;102132.63;5047869;28;20442;-79
2022/10/16 05:03:09;;;;;;;49.08;42.70;;;;;;;2.80;100.00;102130.97;5047278;28;20057;-79
2022/10/16 05:05:37;;;;;;;47.35;42.72;;;;;;;2.93;100.00;102139.53;5051280;28;20575;-79
2022/10/16 05:08:04;;;;;;;46.28;42.20;;;;;;;2.98;100.00;102134.75;5042095;28;20050;-79
2022/10/16 05:10:31;;;;;;;45.60;41.22;;;;;;;2.88;100.00;102139.06;5046764;28;20049;-78
2022/10/16 05:12:58;;;;;;;43.63;39.28;;;;;;;2.97;100.00;102140.97;5049956;28;20049;-80
2022/10/16 05:15:25;;;;;;;42.80;39.17;;;;;;;3.04;100.00;102147.38;5050160;28;20171;-81
2022/10/16 05:17:54;;;;;;;44.42;40.05;;;;;;;3.05;100.00;102146.41;5042217;28;20118;-81
2022/10/16 05:20:21;;;;;;;45.55;41.20;;;;;;;3.10;100.00;102153.94;5049893;28;20503;-79
2022/10/16 05:22:49;;;;;;;52.47;47.78;;;;;;;3.34;100.00;102162.47;5042335;28;20042;-77
2022/10/16 05:25:16;;;;;;;48.33;43.95;;;;;;;3.38;100.00;102176.19;4995977;28;20053;-78
2022/10/16 05:27:43;;;;;;;44.35;40.05;;;;;;;3.52;100.00;102173.31;5051725;28;20481;-81
2022/10/16 05:30:10;;;;;;;42.47;38.63;;;;;;;3.65;100.00;102175.75;5050830;28;20114;-80
2022/10/16 05:32:37;;;;;;;44.60;40.90;;;;;;;3.45;100.00;102185.28;4970600;28;20187;-80
2022/10/16 05:35:04;;;;;;;52.75;48.22;;;;;;;3.93;100.00;102186.63;5021193;28;20045;-81
2022/10/16 05:37:31;;;;;;;51.13;46.78;;;;;;;4.35;100.00;102184.84;5052861;28;20057;-81
2022/10/16 05:39:59;;;;;;;45.58;41.80;;;;;;;4.33;100.00;102197.31;5047256;28;20076;-77
2022/10/16 05:42:26;;;;;;;44.97;41.28;;;;;;;4.39;100.00;102202.06;5047865;28;20447;-79
2022/10/16 05:44:53;;;;;;;44.95;41.33;;;;;;;4.59;100.00;102198.56;5045681;28;20049;-80
2022/10/16 05:47:20;;;;;;;46.25;42.47;;;;;;;4.70;100.00;102197.66;5049287;28;20044;-79
2022/10/16 05:49:47;;;;;;;46.33;42.00;;;;;;;4.86;100.00;102201.63;5048743;28;20132;-81
2022/10/16 05:52:14;;;;;;;45.90;41.83;;;;;;;5.02;100.00;102197.53;5049320;28;20049;-78
2022/10/16 05:54:41;;;;;;;43.08;39.50;;;;;;;5.20;100.00;102194.25;5045854;28;20045;-80
2022/10/16 05:57:09;;;;;;;42.97;39.63;;;;;;;5.20;100.00;102202.97;5047309;28;20119;-81
2022/10/16 05:59:36;;;;;;;44.42;40.95;;;;;;;5.41;100.00;102208.16;5048818;28;20053;-78
2022/10/16 06:02:03;;;;;;;45.35;41.85;;;;;;;5.59;100.00;102208.31;5046594;28;20122;-81
2022/10/16 06:04:30;;;;;;;45.65;41.85;;;;;;;5.82;100.00;102203.63;5051981;28;20468;-79
2022/10/16 06:07:00;;;;;;;43.15;39.75;;;;;;;6.04;100.00;102207.81;5046953;28;20484;-81
2022/10/16 06:09:27;;;;;;;41.35;38.65;;;;;;;6.10;100.00;102217.00;5050131;28;20051;-78
2022/10/16 06:11:54;;;;;;;42.75;39.88;;;;;;;6.24;100.00;102221.84;5046554;28;20488;-78
2022/10/16 06:14:22;;;;;;;42.92;39.72;;;;;;;6.60;100.00;102222.88;5049336;28;20049;-80
2022/10/16 06:16:49;;;;;;;42.72;39.47;;;;;;;6.55;100.00;102219.84;5053174;28;20057;-79
2022/10/16 06:19:16;;;;;;;44.28;40.83;;;;;;;6.72;100.00;102230.63;5052900;28;20060;-79
2022/10/16 06:21:42;;;;;;;43.15;39.80;;;;;;;6.79;100.00;102229.09;5052039;28;20157;-78
2022/10/16 06:24:10;;;;;;;55.00;48.58;;;;;;;7.01;100.00;102238.47;5052224;28;20045;-79
2022/10/16 06:26:38;;;;;;;77.63;52.72;;;;;;;7.51;100.00;102232.78;5053274;28;20447;-80
2022/10/16 06:29:05;;;;;;;39.97;37.20;;;;;;;7.48;100.00;102233.09;5049160;28;20041;-79
2022/10/16 06:31:33;;;;;;;40.97;37.70;;;;;;;8.05;100.00;102244.22;5049717;28;20497;-78
2022/10/16 06:34:01;;;;;;;39.40;36.70;;;;;;;7.82;100.00;102243.84;5050777;28;20048;-81
2022/10/16 06:36:28;;;;;;;43.35;40.25;;;;;;;7.78;100.00;102242.50;5051362;28;20049;-78
2022/10/16 06:38:55;;;;;;;40.65;37.80;;;;;;;8.21;100.00;102240.88;5047210;28;20041;-81
2022/10/16 06:41:23;;;;;;;40.75;37.65;;;;;;;8.45;100.00;102240.28;5046781;28;20069;-80
2022/10/16 06:43:51;;;;;;;40.47;37.67;;;;;;;9.09;100.00;102246.94;5050234;28;20048;-81
2022/10/16 06:46:21;;;;;;;43.00;39.60;;;;;;;9.23;100.00;102239.34;5048131;28;20526;-79
2022/10/16 06:48:49;;;;;;;42.60;39.58;;;;;;;9.44;100.00;102241.59;5045353;28;20041;-78
2022/10/16 06:51:18;;;;;;;55.50;50.50;;;;;;;9.74;100.00;102241.03;5052633;28;20443;-81
2022/10/16 06:53:46;;;;;;;43.92;40.17;;;;;;;10.13;100.00;102237.72;5045585;28;20107;-78
2022/10/16 06:56:15;;;;;;;48.22;43.60;;;;;;;10.30;100.00;102243.91;5044802;28;20374;-81
2022/10/16 06:58:43;;;;;;;44.67;40.88;;;;;;;10.86;100.00;102244.81;5048085;28;20048;-78
2022/10/16 07:01:11;;;;;;;42.60;39.40;;;;;;;11.75;100.00;102245.41;5046421;28;20494;-81
2022/10/16 07:03:38;;;;;;;40.65;37.65;;;;;;;12.32;100.00;102246.81;5051149;28;20099;-79
2022/10/16 07:06:08;;;;;;;46.78;42.22;;;;;;;11.84;100.00;102246.16;5049458;28;20130;-82
2022/10/16 07:08:36;;;;;;;41.38;38.45;;;;;;;12.36;100.00;102246.28;5052137;28;20099;-82
2022/10/16 07:11:05;;;;;;;40.95;37.70;;;;;;;13.01;100.00;102242.13;5052246;28;20055;-78
2022/10/16 07:13:34;;;;;;;46.03;41.88;;;;;;;12.98;100.00;102249.63;5046450;28;20045;-78
2022/10/16 07:16:05;;;;;;;42.45;39.25;;;;;;;13.40;100.00;102240.13;5048264;28;20103;-78
2022/10/16 07:18:32;;;;;;;42.05;38.65;;;;;;;13.30;100.00;102237.78;5049495;28;20079;-81
2022/10/16 07:21:06;;;;;;;44.50;40.67;;;;;;;13.78;100.00;102243.44;5051915;28;20076;-82
2022/10/16 07:23:33;;;;;;;43.38;39.67;;;;;;;13.78;100.00;102238.09;5050357;28;20049;-79
2022/10/16 07:25:59;;;;;;;43.17;39.88;;;;;;;14.19;100.00;102243.63;5053176;28;20052;-82
2022/10/16 07:28:26;;;;;;;44.60;41.40;;;;;;;14.55;100.00;102245.34;5051805;28;20463;-79
2022/10/16 07:30:53;;;;;;;45.22;41.33;;;;;;;15.30;100.00;102245.56;5043835;28;20059;-81
2022/10/16 07:33:20;;;;;;;42.83;39.83;;;;;;;15.11;100.00;102237.25;5047517;28;20053;-82
2022/10/16 07:35:51;;;;;;;44.17;40.42;;;;;;;15.53;100.00;102254.09;5046117;28;20048;-81
2022/10/16 07:38:22;;;;;;;43.85;40.40;;;;;;;15.78;100.00;102232.94;5046584;28;20131;-79
2022/10/16 07:41:02;;;;;;;45.05;41.42;;;;;;;15.64;100.00;102241.13;5044010;28;20118;-82
2022/10/16 07:43:31;;;;;;;43.75;40.10;;;;;;;16.11;100.00;102242.88;5047849;28;20068;-82
2022/10/16 07:45:58;;;;;;;45.38;41.72;;;;;;;16.23;100.00;102248.47;5042615;28;20388;-82
2022/10/16 07:48:27;;;;;;;43.60;40.28;;;;;;;16.35;100.00;102241.44;5042859;28;20401;-79
2022/10/16 07:50:58;;;;;;;43.20;39.65;;;;;;;17.12;100.00;102244.38;5043413;28;20053;-79
2022/10/16 07:53:26;;;;;;;47.22;42.75;;;;;;;17.38;100.00;102240.78;5047136;28;20044;-83
2022/10/16 07:55:58;;;;;;;44.83;41.45;;;;;;;17.09;100.00;102247.50;5047047;28;20056;-82
2022/10/16 07:58:25;;;;;;;43.97;40.60;;;;;;;16.82;100.00;102242.22;5048019;28;20559;-81
2022/10/16 08:00:52;;;;;;;43.50;40.03;;;;;;;17.62;100.00;102244.56;5042610;28;20052;-82
2022/10/16 08:03:21;;;;;;;44.45;40.85;;;;;;;17.58;100.00;102240.69;5042564;28;20060;-81
2022/10/16 08:05:48;;;;;;;44.97;41.53;;;;;;;17.86;100.00;102237.63;5041407;28;20497;-84
2022/10/16 08:08:16;;;;;;;45.85;42.45;;;;;;;17.72;100.00;102247.59;5043916;28;20045;-81
2022/10/16 08:10:45;;;;;;;44.30;40.80;;;;;;;18.26;100.00;102245.38;5044222;28;20049;-81
2022/10/16 08:13:14;;;;;;;43.38;40.47;;;;;;;17.76;100.00;102243.47;5039066;28;20049;-82
2022/10/16 08:15:41;;;;;;;45.28;42.00;;;;;;;18.26;100.00;102242.69;5042557;28;20041;-82
2022/10/16 08:18:34;;;;;;;44.22;40.55;;;;;;;18.72;100.00;102244.94;5042337;28;20041;-78
2022/10/16 08:21:01;;;;;;;44.08;40.72;;;;;;;19.13;97.78;102253.44;5041121;28;20500;-78
2022/10/16 08:23:29;;;;;;;47.60;43.60;;;;;;;19.13;90.18;102248.84;5045838;28;20048;-81
2022/10/16 08:26:04;;;;;;;46.35;42.72;;;;;;;17.82;94.90;102252.53;5045554;28;20477;-83
2022/10/16 08:28:32;;;;;;;44.97;41.65;;;;;;;18.39;98.03;102255.19;5044622;28;20045;-83
2022/10/16 08:31:11;;;;;;;46.33;42.75;;;;;;;19.17;86.20;102250.03;5052491;28;20052;-83
2022/10/16 08:33:39;;;;;;;44.75;41.65;;;;;;;19.83;79.55;102244.84;5044270;28;20124;-83
2022/10/16 08:36:09;;;;;;;47.88;43.97;;;;;;;19.71;81.75;102246.69;5047120;28;20738;-79
2022/10/16 08:38:49;;;;;;;48.53;45.08;;;;;;;18.68;73.06;102256.38;5041393;28;20095;-78
2022/10/16 08:42:23;;;;;;;47.88;44.25;;;;;;;20.28;66.69;102255.94;5047049;28;20133;-79
2022/10/16 08:48:59;;;;;;;43.63;40.83;;;;;;;20.89;62.51;102253.81;4892850;29;20478;-83
2022/10/16 08:51:57;;;;;;;43.60;40.10;;;;;;;21.35;58.11;102252.03;4925057;29;20538;-80
2022/10/16 08:54:40;;;;;;;41.42;38.42;;;;;;;21.26;59.63;102251.59;4947434;29;20047;-83
2022/10/16 08:57:12;;;;;;;41.38;38.40;;;;;;;19.19;60.87;102252.53;4948916;28;20073;-84
2022/10/16 09:03:19;;;;;;;44.72;41.42;;;;;;;22.68;53.52;102251.56;5130662;23;19920;-80
2022/10/16 09:06:06;;;;;;;44.83;41.65;;;;;;;22.32;49.16;102253.75;4998489;28;20073;-80
2022/10/16 09:08:45;;;;;;;42.45;39.15;;;;;;;22.53;53.27;102248.63;5039294;28;20481;-81
2022/10/16 09:11:22;;;;;;;43.28;39.55;;;;;;;22.00;52.61;102248.09;5048600;28;20414;-84
2022/10/16 09:14:00;;;;;;;43.53;40.40;;;;;;;21.11;54.65;102256.69;5044163;28;20043;-81
2022/10/16 09:16:41;;;;;;;42.03;38.92;;;;;;;21.73;52.84;102258.72;5048048;28;20050;-83
2022/10/16 09:21:57;;;;;;;42.03;38.97;;;;;;;22.00;53.22;102248.09;5043721;28;20057;-85
2022/10/16 09:24:59;;;;;;;42.10;38.75;;;;;;;20.99;55.26;102259.41;5046755;28;20041;-85
2022/10/16 09:27:42;;;;;;;40.95;38.15;;;;;;;21.62;53.84;102256.88;5047853;28;20056;-80
2022/10/16 09:30:17;;;;;;;41.60;38.55;;;;;;;21.89;49.99;102251.69;5044805;28;20052;-81
2022/10/16 09:32:54;;;;;;;40.92;37.65;;;;;;;22.24;50.60;102242.50;5042677;28;20053;-79
2022/10/16 09:35:51;;;;;;;41.80;38.60;;;;;;;21.89;50.86;102241.69;5044272;28;20456;-83
2022/10/16 09:38:35;;;;;;;42.45;39.65;;;;;;;22.12;50.70;102248.81;5042541;28;20047;-83
2022/10/16 09:41:17;;;;;;;42.78;39.55;;;;;;;23.07;50.77;102232.59;5045647;28;20056;-85
2022/10/16 09:46:42;;;;;;;41.22;38.05;;;;;;;22.45;47.59;102233.66;5018225;28;20065;-81
2022/10/16 09:49:24;;;;;;;41.38;38.58;;;;;;;23.23;45.64;102236.28;5053984;28;20052;-86
2022/10/16 09:51:53;;;;;;;40.93;37.70;;;;;;;23.50;44.62;102228.97;5037443;28;20050;-84
2022/10/16 09:54:23;;;;;;;41.25;38.22;;;;;;;23.41;42.30;102225.09;5053618;28;20049;-85
2022/10/16 09:56:51;;;;;;;41.50;38.10;;;;;;;23.18;46.45;102214.53;5052231;28;20045;-82
2022/10/16 09:59:28;;;;;;;40.92;37.92;;;;;;;23.84;44.50;102206.25;5051843;28;20057;-82
2022/10/16 10:01:56;;;;;;;40.05;36.92;;;;;;;23.17;46.08;102213.72;5044281;28;20049;-80
2022/10/16 10:04:35;;;;;;;40.10;36.95;;;;;;;25.23;43.45;102214.06;5052398;28;20137;-80
2022/10/16 10:07:02;;;;;;;40.15;37.28;;;;;;;23.41;43.12;102205.28;5041655;28;20049;-84
2022/10/16 10:09:32;;;;;;;39.35;36.03;;;;;;;24.29;42.33;102204.94;5042808;28;20055;-84
2022/10/16 10:12:00;;;;;;;41.90;38.47;;;;;;;24.29;42.43;102207.66;5048905;28;20467;-85
2022/10/16 10:14:33;;;;;;;41.80;37.95;;;;;;;23.75;42.94;102205.91;5047609;28;20100;-84
2022/10/16 10:17:14;;;;;;;41.30;38.40;;;;;;;22.90;42.82;102210.13;5045956;28;20044;-85
2022/10/16 10:19:45;;;;;;;42.22;39.35;;;;;;;22.56;45.48;102208.34;5045631;28;20061;-84
2022/10/16 10:22:32;;;;;;;41.75;38.90;;;;;;;24.49;42.14;102204.28;5051285;28;20535;-85
2022/10/16 10:25:17;;;;;;;40.97;37.90;;;;;;;24.43;42.50;102206.97;5047069;28;20370;-83
2022/10/16 10:28:05;;;;;;;42.60;39.38;;;;;;;22.88;42.70;102199.56;5040984;28;20107;-80
2022/10/16 10:30:41;;;;;;;42.20;39.17;;;;;;;21.88;44.24;102206.78;5046730;28;20049;-83
2022/10/16 10:33:26;;;;;;;41.25;38.25;;;;;;;21.41;44.43;102209.75;5046596;28;20049;-84
2022/10/16 10:36:03;;;;;;;41.20;38.10;;;;;;;22.93;44.10;102198.78;5049110;28;20116;-80
2022/10/16 10:38:46;;;;;;;39.50;36.47;;;;;;;23.83;41.54;102199.19;5044970;28;20088;-81
2022/10/16 10:41:35;;;;;;;41.03;38.03;;;;;;;24.23;42.30;102196.75;5043985;28;20091;-85
2022/10/16 10:44:08;;;;;;;41.53;38.45;;;;;;;23.76;45.02;102197.50;5045187;28;20389;-80
2022/10/16 10:46:38;;;;;;;40.63;37.83;;;;;;;23.43;42.06;102192.31;5038219;28;20041;-81
2022/10/16 10:49:29;;;;;;;39.25;36.17;;;;;;;24.88;39.94;102194.66;5052435;28;20045;-85
2022/10/16 10:52:08;;;;;;;39.38;36.38;;;;;;;23.99;39.49;102185.50;5044255;28;20052;-84
2022/10/16 10:54:42;;;;;;;39.33;36.22;;;;;;;24.16;40.80;102195.38;5040797;28;20045;-83
2022/10/16 10:57:35;;;;;;;39.67;36.72;;;;;;;23.64;40.67;102188.69;5041896;28;20068;-81
2022/10/16 11:00:21;;;;;;;40.85;37.55;;;;;;;24.14;38.81;102190.19;5045379;28;20045;-84
2022/10/16 11:02:56;;;;;;;41.08;38.13;;;;;;;23.60;42.26;102187.59;5030675;28;20134;-84
2022/10/16 11:05:37;;;;;;;40.47;37.58;;;;;;;23.01;41.63;102187.53;5044253;28;20045;-81
2022/10/16 11:08:12;;;;;;;41.10;37.90;;;;;;;23.36;42.20;102183.53;5048542;28;20041;-84
2022/10/16 11:10:46;;;;;;;40.10;37.05;;;;;;;24.38;39.44;102176.22;5046778;28;20045;-81
2022/10/16 11:13:25;;;;;;;40.10;36.97;;;;;;;24.14;40.69;102175.78;5040284;28;20501;-81
2022/10/16 11:15:58;;;;;;;41.30;38.30;;;;;;;23.91;40.01;102183.25;5044245;28;20110;-79
2022/10/16 11:18:32;;;;;;;40.15;36.95;;;;;;;23.44;41.96;102186.63;5047946;28;20476;-83
2022/10/16 11:21:05;;;;;;;40.55;37.17;;;;;;;24.39;38.90;102184.09;5044091;28;20147;-84
2022/10/16 11:23:37;;;;;;;40.90;37.75;;;;;;;24.37;39.75;102177.28;5041788;28;20060;-80
2022/10/16 11:26:13;;;;;;;41.60;38.45;;;;;;;23.45;40.50;102179.28;5044673;28;20049;-85
2022/10/16 11:28:48;;;;;;;40.17;37.22;;;;;;;25.06;39.84;102174.34;5041284;28;20389;-85
2022/10/16 11:31:20;;;;;;;42.88;39.75;;;;;;;23.95;41.05;102172.69;5045817;28;20056;-80
2022/10/16 11:33:55;;;;;;;43.75;40.65;;;;;;;24.56;40.68;102169.53;5048152;28;20053;-81
2022/10/16 11:36:28;;;;;;;40.35;37.40;;;;;;;25.28;38.93;102173.31;5045291;28;20045;-81
2022/10/16 11:39:01;;;;;;;43.25;39.97;;;;;;;25.99;39.00;102153.47;5046834;28;20071;-86